sensor_id;sensor_type;location;lat;lon;timestamp;pressure;altitude;pressure_sealevel;temperature;humidity
54918;BME280;40818;50.562;7.454;2023-07-29T00:09:42;97069.50;;;17.49;100.00
54918;BME280;40818;50.562;7.454;2023-07-29T00:19:48;97057.06;;;17.51;100.00
54918;BME280;40818;50.562;7.454;2023-07-29T00:29:52;97055.72;;;17.47;100.00
54918;BME280;40818;50.562;7.454;2023-07-29T00:39:58;97045.53;;;17.44;100.00
54918;BME280;40818;50.562;7.454;2023-07-29T00:50:01;97038.66;;;17.34;100.00
54918;BME280;40818;50.562;7.454;2023-07-29T01:00:10;97032.41;;;17.35;100.00
54918;BME280;40818;50.562;7.454;2023-07-29T01:10:20;97018.47;;;17.35;100.00
54918;BME280;40818;50.562;7.454;2023-07-29T01:20:32;97014.38;;;17.40;100.00
54918;BME280;40818;50.562;7.454;2023-07-29T01:30:42;96999.16;;;17.44;100.00
54918;BME280;40818;50.562;7.454;2023-07-29T01:40:48;97003.56;;;17.44;100.00
54918;BME280;40818;50.562;7.454;2023-07-29T01:50:54;96991.75;;;17.48;100.00
54918;BME280;40818;50.562;7.454;2023-07-29T02:00:58;96997.84;;;17.48;100.00
54918;BME280;40818;50.562;7.454;2023-07-29T02:11:04;96985.38;;;17.50;100.00
54918;BME280;40818;50.562;7.454;2023-07-29T02:21:07;96978.81;;;17.46;100.00
54918;BME280;40818;50.562;7.454;2023-07-29T02:31:16;96951.41;;;17.40;100.00
54918;BME280;40818;50.562;7.454;2023-07-29T02:41:20;96942.91;;;17.30;100.00
54918;BME280;40818;50.562;7.454;2023-07-29T02:51:26;96960.28;;;17.23;100.00
54918;BME280;40818;50.562;7.454;2023-07-29T03:01:30;96950.25;;;17.18;100.00
54918;BME280;40818;50.562;7.454;2023-07-29T03:11:36;96943.84;;;17.13;100.00
54918;BME280;40818;50.562;7.454;2023-07-29T03:21:40;96941.72;;;17.08;100.00
54918;BME280;40818;50.562;7.454;2023-07-29T03:31:46;96945.31;;;17.07;100.00
54918;BME280;40818;50.562;7.454;2023-07-29T03:41:50;96944.78;;;17.03;100.00
54918;BME280;40818;50.562;7.454;2023-07-29T03:51:56;96950.38;;;17.00;100.00
54918;BME280;40818;50.562;7.454;2023-07-29T04:01:59;96945.28;;;16.99;100.00
54918;BME280;40818;50.562;7.454;2023-07-29T04:12:06;96955.28;;;17.03;100.00
54918;BME280;40818;50.562;7.454;2023-07-29T04:22:10;96963.69;;;17.15;100.00
54918;BME280;40818;50.562;7.454;2023-07-29T04:32:16;96977.63;;;17.24;100.00
54918;BME280;40818;50.562;7.454;2023-07-29T04:42:19;96985.50;;;17.32;100.00
54918;BME280;40818;50.562;7.454;2023-07-29T04:52:26;96977.66;;;17.40;100.00
54918;BME280;40818;50.562;7.454;2023-07-29T05:02:29;96967.97;;;17.49;100.00
54918;BME280;40818;50.562;7.454;2023-07-29T05:12:35;96967.81;;;17.59;100.00
54918;BME280;40818;50.562;7.454;2023-07-29T05:22:39;96975.06;;;17.65;100.00
54918;BME280;40818;50.562;7.454;2023-07-29T05:32:45;96985.56;;;17.65;100.00
54918;BME280;40818;50.562;7.454;2023-07-29T05:42:48;96979.31;;;17.58;100.00
54918;BME280;40818;50.562;7.454;2023-07-29T05:52:54;96984.88;;;17.55;100.00
54918;BME280;40818;50.562;7.454;2023-07-29T06:02:58;96989.81;;;17.58;100.00
54918;BME280;40818;50.562;7.454;2023-07-29T06:13:04;96988.00;;;17.67;100.00
54918;BME280;40818;50.562;7.454;2023-07-29T06:23:08;96995.56;;;17.78;100.00
54918;BME280;40818;50.562;7.454;2023-07-29T06:33:14;97013.59;;;17.89;100.00
54918;BME280;40818;50.562;7.454;2023-07-29T06:43:17;97010.19;;;18.05;100.00
54918;BME280;40818;50.562;7.454;2023-07-29T06:53:24;97024.28;;;18.29;100.00
54918;BME280;40818;50.562;7.454;2023-07-29T07:03:28;97029.69;;;18.44;100.00
54918;BME280;40818;50.562;7.454;2023-07-29T07:13:34;97041.63;;;18.63;100.00
54918;BME280;40818;50.562;7.454;2023-07-29T07:23:38;97040.38;;;19.07;100.00
54918;BME280;40818;50.562;7.454;2023-07-29T07:33:44;97047.34;;;20.62;100.00
54918;BME280;40818;50.562;7.454;2023-07-29T07:43:48;97028.91;;;21.43;100.00
54918;BME280;40818;50.562;7.454;2023-07-29T07:53:54;97055.38;;;21.50;100.00
54918;BME280;40818;50.562;7.454;2023-07-29T08:03:57;97055.34;;;21.13;100.00
54918;BME280;40818;50.562;7.454;2023-07-29T08:14:03;97047.03;;;21.31;100.00
54918;BME280;40818;50.562;7.454;2023-07-29T08:24:07;97047.44;;;21.65;100.00
54918;BME280;40818;50.562;7.454;2023-07-29T08:34:13;97053.00;;;21.70;100.00
54918;BME280;40818;50.562;7.454;2023-07-29T08:44:19;97063.53;;;21.92;100.00
54918;BME280;40818;50.562;7.454;2023-07-29T08:54:27;97063.41;;;22.00;100.00
54918;BME280;40818;50.562;7.454;2023-07-29T09:04:30;97080.16;;;21.86;100.00
54918;BME280;40818;50.562;7.454;2023-07-29T09:14:36;97090.25;;;21.60;100.00
54918;BME280;40818;50.562;7.454;2023-07-29T09:24:40;97100.50;;;21.19;100.00
54918;BME280;40818;50.562;7.454;2023-07-29T09:34:46;97103.56;;;20.77;100.00
54918;BME280;40818;50.562;7.454;2023-07-29T09:44:50;97097.56;;;20.07;100.00
54918;BME280;40818;50.562;7.454;2023-07-29T09:54:56;97115.88;;;20.01;100.00
54918;BME280;40818;50.562;7.454;2023-07-29T10:05:02;97118.06;;;20.20;100.00
54918;BME280;40818;50.562;7.454;2023-07-29T10:15:10;97125.28;;;20.26;100.00
54918;BME280;40818;50.562;7.454;2023-07-29T10:25:16;97116.53;;;20.26;100.00
54918;BME280;40818;50.562;7.454;2023-07-29T10:35:23;97103.56;;;20.77;100.00
54918;BME280;40818;50.562;7.454;2023-07-29T10:45:26;97096.97;;;21.99;100.00
54918;BME280;40818;50.562;7.454;2023-07-29T10:55:43;97103.94;;;24.31;96.84
54918;BME280;40818;50.562;7.454;2023-07-29T11:05:49;97091.22;;;26.61;87.37
54918;BME280;40818;50.562;7.454;2023-07-29T11:15:55;97073.72;;;27.28;72.94
54918;BME280;40818;50.562;7.454;2023-07-29T11:26:00;97069.44;;;27.08;76.39
54918;BME280;40818;50.562;7.454;2023-07-29T11:36:11;97074.91;;;27.32;74.32
54918;BME280;40818;50.562;7.454;2023-07-29T11:46:23;97084.28;;;26.79;69.24
54918;BME280;40818;50.562;7.454;2023-07-29T11:56:29;97097.56;;;24.99;74.54
54918;BME280;40818;50.562;7.454;2023-07-29T12:06:33;97088.38;;;23.88;82.19
54918;BME280;40818;50.562;7.454;2023-07-29T12:16:48;97090.66;;;24.11;88.59
54918;BME280;40818;50.562;7.454;2023-07-29T12:26:52;97060.94;;;26.30;78.39
54918;BME280;40818;50.562;7.454;2023-07-29T12:36:59;97058.22;;;27.06;64.54
54918;BME280;40818;50.562;7.454;2023-07-29T12:47:03;97053.50;;;26.64;62.75
54918;BME280;40818;50.562;7.454;2023-07-29T12:57:11;97063.16;;;27.02;64.95
54918;BME280;40818;50.562;7.454;2023-07-29T13:07:15;97057.16;;;28.05;61.74
54918;BME280;40818;50.562;7.454;2023-07-29T13:17:21;97035.72;;;28.23;60.17
54918;BME280;40818;50.562;7.454;2023-07-29T13:27:25;97041.97;;;29.12;59.97
54918;BME280;40818;50.562;7.454;2023-07-29T13:37:31;97032.56;;;29.09;55.79
54918;BME280;40818;50.562;7.454;2023-07-29T13:47:35;97030.50;;;28.29;56.52
54918;BME280;40818;50.562;7.454;2023-07-29T13:57:41;97022.84;;;26.99;66.93
54918;BME280;40818;50.562;7.454;2023-07-29T14:07:45;97018.78;;;25.77;78.44
54918;BME280;40818;50.562;7.454;2023-07-29T14:17:51;97037.28;;;25.13;83.25
54918;BME280;40818;50.562;7.454;2023-07-29T14:27:54;97044.84;;;23.48;90.64
54918;BME280;40818;50.562;7.454;2023-07-29T14:38:00;97054.97;;;22.90;91.90
54918;BME280;40818;50.562;7.454;2023-07-29T14:48:04;97052.78;;;22.65;95.17
54918;BME280;40818;50.562;7.454;2023-07-29T14:58:10;97040.59;;;22.71;96.53
54918;BME280;40818;50.562;7.454;2023-07-29T15:08:14;97048.94;;;21.53;100.00
54918;BME280;40818;50.562;7.454;2023-07-29T15:18:21;97068.53;;;21.28;100.00
54918;BME280;40818;50.562;7.454;2023-07-29T15:28:27;97066.38;;;21.69;100.00
54918;BME280;40818;50.562;7.454;2023-07-29T15:38:33;97053.78;;;22.64;98.55
54918;BME280;40818;50.562;7.454;2023-07-29T15:48:36;97053.31;;;22.54;98.87
54918;BME280;40818;50.562;7.454;2023-07-29T15:58:42;97063.06;;;22.53;96.94
54918;BME280;40818;50.562;7.454;2023-07-29T16:08:46;97076.97;;;22.62;94.66
54918;BME280;40818;50.562;7.454;2023-07-29T16:18:52;97064.59;;;22.69;96.16
54918;BME280;40818;50.562;7.454;2023-07-29T16:28:55;97067.69;;;22.44;97.80
54918;BME280;40818;50.562;7.454;2023-07-29T16:39:02;97090.81;;;22.64;95.11
54918;BME280;40818;50.562;7.454;2023-07-29T16:49:06;97081.34;;;22.26;98.19
54918;BME280;40818;50.562;7.454;2023-07-29T16:59:12;97102.41;;;21.76;100.00
54918;BME280;40818;50.562;7.454;2023-07-29T17:09:16;97107.41;;;21.20;100.00
54918;BME280;40818;50.562;7.454;2023-07-29T17:19:22;97104.88;;;21.11;100.00
54918;BME280;40818;50.562;7.454;2023-07-29T17:29:25;97106.41;;;20.91;100.00
54918;BME280;40818;50.562;7.454;2023-07-29T17:39:32;97085.50;;;20.36;100.00
54918;BME280;40818;50.562;7.454;2023-07-29T17:49:36;97081.97;;;20.21;100.00
54918;BME280;40818;50.562;7.454;2023-07-29T17:59:43;97078.66;;;20.04;100.00
54918;BME280;40818;50.562;7.454;2023-07-29T18:09:46;97074.38;;;19.80;100.00
54918;BME280;40818;50.562;7.454;2023-07-29T18:19:53;97084.19;;;19.63;100.00
54918;BME280;40818;50.562;7.454;2023-07-29T18:29:56;97088.41;;;19.40;100.00
54918;BME280;40818;50.562;7.454;2023-07-29T18:40:04;97098.69;;;19.19;100.00
54918;BME280;40818;50.562;7.454;2023-07-29T18:50:08;97110.28;;;18.93;100.00
54918;BME280;40818;50.562;7.454;2023-07-29T19:00:14;97123.09;;;18.80;100.00
54918;BME280;40818;50.562;7.454;2023-07-29T19:10:18;97125.09;;;18.69;100.00
54918;BME280;40818;50.562;7.454;2023-07-29T19:20:24;97140.19;;;18.59;100.00
54918;BME280;40818;50.562;7.454;2023-07-29T19:30:28;97130.69;;;18.50;100.00
54918;BME280;40818;50.562;7.454;2023-07-29T19:40:35;97126.25;;;18.34;100.00
54918;BME280;40818;50.562;7.454;2023-07-29T19:50:38;97123.94;;;18.22;100.00
54918;BME280;40818;50.562;7.454;2023-07-29T20:00:45;97128.06;;;18.17;100.00
54918;BME280;40818;50.562;7.454;2023-07-29T20:10:48;97120.50;;;18.14;100.00
54918;BME280;40818;50.562;7.454;2023-07-29T20:20:54;97140.22;;;18.10;100.00
54918;BME280;40818;50.562;7.454;2023-07-29T20:30:58;97128.22;;;18.07;100.00
54918;BME280;40818;50.562;7.454;2023-07-29T20:41:04;97116.56;;;18.01;100.00
54918;BME280;40818;50.562;7.454;2023-07-29T20:51:08;97112.56;;;17.89;100.00
54918;BME280;40818;50.562;7.454;2023-07-29T21:01:14;97120.44;;;17.81;100.00
54918;BME280;40818;50.562;7.454;2023-07-29T21:11:18;97141.06;;;17.75;100.00
54918;BME280;40818;50.562;7.454;2023-07-29T21:21:24;97143.50;;;17.69;100.00
54918;BME280;40818;50.562;7.454;2023-07-29T21:31:28;97140.88;;;17.61;100.00
54918;BME280;40818;50.562;7.454;2023-07-29T21:41:34;97149.03;;;17.49;100.00
54918;BME280;40818;50.562;7.454;2023-07-29T21:51:37;97163.13;;;17.40;100.00
54918;BME280;40818;50.562;7.454;2023-07-29T22:01:43;97179.47;;;17.34;100.00
54918;BME280;40818;50.562;7.454;2023-07-29T22:11:47;97182.72;;;17.28;100.00
54918;BME280;40818;50.562;7.454;2023-07-29T22:21:53;97191.69;;;17.17;100.00
54918;BME280;40818;50.562;7.454;2023-07-29T22:31:56;97205.25;;;17.12;100.00
54918;BME280;40818;50.562;7.454;2023-07-29T22:42:03;97222.72;;;17.03;100.00
54918;BME280;40818;50.562;7.454;2023-07-29T22:52:07;97232.88;;;16.98;100.00
54918;BME280;40818;50.562;7.454;2023-07-29T23:02:13;97220.66;;;16.89;100.00
54918;BME280;40818;50.562;7.454;2023-07-29T23:12:17;97218.91;;;16.80;100.00
54918;BME280;40818;50.562;7.454;2023-07-29T23:22:23;97220.16;;;16.67;100.00
54918;BME280;40818;50.562;7.454;2023-07-29T23:32:26;97232.13;;;16.52;100.00
54918;BME280;40818;50.562;7.454;2023-07-29T23:42:32;97218.59;;;16.38;100.00
54918;BME280;40818;50.562;7.454;2023-07-29T23:52:36;97205.88;;;16.26;100.00
